sensor_id;sensor_type;location;lat;lon;timestamp;pressure;altitude;pressure_sealevel;temperature;humidity
6090;BME280;3073;42.660;23.316;2023-04-07T00:01:56;94195.69;;;12.79;35.18
6090;BME280;3073;42.660;23.316;2023-04-07T00:04:27;94194.41;;;13.07;35.23
6090;BME280;3073;42.660;23.316;2023-04-07T00:06:54;94202.34;;;12.55;35.22
6090;BME280;3073;42.660;23.316;2023-04-07T00:09:21;94196.97;;;12.81;35.27
6090;BME280;3073;42.660;23.316;2023-04-07T00:11:48;94202.59;;;12.48;35.27
6090;BME280;3073;42.660;23.316;2023-04-07T00:14:16;94196.47;;;12.54;35.35
6090;BME280;3073;42.660;23.316;2023-04-07T00:16:45;94198.50;;;12.93;35.06
6090;BME280;3073;42.660;23.316;2023-04-07T00:19:12;94199.91;;;11.93;35.79
6090;BME280;3073;42.660;23.316;2023-04-07T00:21:39;94202.81;;;12.31;35.53
6090;BME280;3073;42.660;23.316;2023-04-07T00:24:06;94194.13;;;12.32;35.75
6090;BME280;3073;42.660;23.316;2023-04-07T00:26:33;94193.16;;;12.64;35.19
6090;BME280;3073;42.660;23.316;2023-04-07T00:29:01;94186.28;;;11.72;35.81
6090;BME280;3073;42.660;23.316;2023-04-07T00:31:28;94186.00;;;13.90;33.89
6090;BME280;3073;42.660;23.316;2023-04-07T00:33:56;94194.69;;;12.70;35.12
6090;BME280;3073;42.660;23.316;2023-04-07T00:36:23;94190.06;;;13.91;33.79
6090;BME280;3073;42.660;23.316;2023-04-07T00:38:50;94197.47;;;11.61;35.73
6090;BME280;3073;42.660;23.316;2023-04-07T00:41:17;94190.81;;;12.98;34.44
6090;BME280;3073;42.660;23.316;2023-04-07T00:43:44;94193.53;;;14.21;33.28
6090;BME280;3073;42.660;23.316;2023-04-07T00:46:11;94198.81;;;13.90;33.57
6090;BME280;3073;42.660;23.316;2023-04-07T00:48:38;94202.00;;;12.06;36.54
6090;BME280;3073;42.660;23.316;2023-04-07T00:51:06;94195.66;;;13.34;34.66
6090;BME280;3073;42.660;23.316;2023-04-07T00:53:33;94196.97;;;12.56;35.54
6090;BME280;3073;42.660;23.316;2023-04-07T00:56:00;94187.34;;;13.68;33.67
6090;BME280;3073;42.660;23.316;2023-04-07T00:58:27;94197.81;;;13.81;33.55
6090;BME280;3073;42.660;23.316;2023-04-07T01:00:58;94194.44;;;13.91;33.32
6090;BME280;3073;42.660;23.316;2023-04-07T01:03:33;94196.94;;;14.06;33.76
6090;BME280;3073;42.660;23.316;2023-04-07T01:06:02;94191.34;;;12.49;34.89
6090;BME280;3073;42.660;23.316;2023-04-07T01:08:47;94188.03;;;12.54;35.29
6090;BME280;3073;42.660;23.316;2023-04-07T01:11:20;94190.31;;;12.85;34.49
6090;BME280;3073;42.660;23.316;2023-04-07T01:13:51;94181.69;;;13.81;33.76
6090;BME280;3073;42.660;23.316;2023-04-07T01:16:23;94182.31;;;13.48;34.05
6090;BME280;3073;42.660;23.316;2023-04-07T01:18:53;94184.56;;;11.93;35.64
6090;BME280;3073;42.660;23.316;2023-04-07T01:21:22;94183.63;;;12.19;35.78
6090;BME280;3073;42.660;23.316;2023-04-07T01:24:09;94187.69;;;12.15;35.68
6090;BME280;3073;42.660;23.316;2023-04-07T01:26:42;94179.31;;;13.10;34.46
6090;BME280;3073;42.660;23.316;2023-04-07T01:29:33;94171.91;;;12.63;35.18
6090;BME280;3073;42.660;23.316;2023-04-07T01:32:05;94182.09;;;12.23;35.67
6090;BME280;3073;42.660;23.316;2023-04-07T01:34:34;94174.19;;;12.39;35.11
6090;BME280;3073;42.660;23.316;2023-04-07T01:37:02;94170.28;;;14.02;33.39
6090;BME280;3073;42.660;23.316;2023-04-07T01:39:31;94171.59;;;13.94;33.96
6090;BME280;3073;42.660;23.316;2023-04-07T01:42:00;94168.59;;;14.99;32.48
6090;BME280;3073;42.660;23.316;2023-04-07T01:44:31;94175.53;;;14.26;32.90
6090;BME280;3073;42.660;23.316;2023-04-07T01:46:59;94164.66;;;14.78;32.78
6090;BME280;3073;42.660;23.316;2023-04-07T01:49:27;94153.84;;;13.54;34.14
6090;BME280;3073;42.660;23.316;2023-04-07T01:51:56;94163.44;;;12.88;34.81
6090;BME280;3073;42.660;23.316;2023-04-07T01:54:24;94158.00;;;13.99;33.48
6090;BME280;3073;42.660;23.316;2023-04-07T01:56:54;94161.63;;;14.32;33.13
6090;BME280;3073;42.660;23.316;2023-04-07T01:59:20;94162.53;;;14.56;32.60
6090;BME280;3073;42.660;23.316;2023-04-07T02:01:49;94158.94;;;13.64;33.23
6090;BME280;3073;42.660;23.316;2023-04-07T02:04:20;94158.94;;;14.86;31.50
6090;BME280;3073;42.660;23.316;2023-04-07T02:06:53;94170.50;;;15.88;31.03
6090;BME280;3073;42.660;23.316;2023-04-07T02:09:23;94163.56;;;14.55;32.41
6090;BME280;3073;42.660;23.316;2023-04-07T02:11:54;94161.41;;;12.80;34.32
6090;BME280;3073;42.660;23.316;2023-04-07T02:14:23;94149.38;;;12.70;34.44
6090;BME280;3073;42.660;23.316;2023-04-07T02:16:52;94158.31;;;12.22;35.11
6090;BME280;3073;42.660;23.316;2023-04-07T02:19:20;94156.69;;;13.43;33.78
6090;BME280;3073;42.660;23.316;2023-04-07T02:21:50;94152.09;;;13.39;33.77
6090;BME280;3073;42.660;23.316;2023-04-07T02:24:18;94150.88;;;12.91;33.64
6090;BME280;3073;42.660;23.316;2023-04-07T02:26:46;94152.56;;;11.75;34.94
6090;BME280;3073;42.660;23.316;2023-04-07T02:29:13;94153.63;;;13.40;33.71
6090;BME280;3073;42.660;23.316;2023-04-07T02:31:40;94161.66;;;12.43;34.81
6090;BME280;3073;42.660;23.316;2023-04-07T02:34:08;94154.16;;;13.97;32.89
6090;BME280;3073;42.660;23.316;2023-04-07T02:36:35;94159.09;;;12.94;34.27
6090;BME280;3073;42.660;23.316;2023-04-07T02:39:02;94158.00;;;13.40;33.39
6090;BME280;3073;42.660;23.316;2023-04-07T02:41:29;94171.38;;;12.46;34.29
6090;BME280;3073;42.660;23.316;2023-04-07T02:43:56;94164.19;;;12.33;34.30
6090;BME280;3073;42.660;23.316;2023-04-07T02:46:23;94167.25;;;12.35;34.34
6090;BME280;3073;42.660;23.316;2023-04-07T02:48:50;94159.34;;;12.82;34.08
6090;BME280;3073;42.660;23.316;2023-04-07T02:51:18;94165.34;;;14.88;31.69
6090;BME280;3073;42.660;23.316;2023-04-07T02:53:45;94162.91;;;14.39;32.43
6090;BME280;3073;42.660;23.316;2023-04-07T02:56:12;94163.34;;;15.62;31.46
6090;BME280;3073;42.660;23.316;2023-04-07T02:58:39;94174.13;;;15.40;31.22
6090;BME280;3073;42.660;23.316;2023-04-07T03:01:05;94178.22;;;14.06;32.24
6090;BME280;3073;42.660;23.316;2023-04-07T03:03:32;94175.88;;;14.09;32.92
6090;BME280;3073;42.660;23.316;2023-04-07T03:05:59;94168.06;;;12.76;34.36
6090;BME280;3073;42.660;23.316;2023-04-07T03:08:29;94176.66;;;13.46;33.92
6090;BME280;3073;42.660;23.316;2023-04-07T03:10:56;94173.13;;;14.01;32.84
6090;BME280;3073;42.660;23.316;2023-04-07T03:13:22;94172.13;;;13.97;32.77
6090;BME280;3073;42.660;23.316;2023-04-07T03:15:49;94179.28;;;12.19;34.65
6090;BME280;3073;42.660;23.316;2023-04-07T03:18:16;94175.97;;;12.29;35.15
6090;BME280;3073;42.660;23.316;2023-04-07T03:20:43;94172.44;;;14.29;32.97
6090;BME280;3073;42.660;23.316;2023-04-07T03:23:12;94169.75;;;14.05;33.34
6090;BME280;3073;42.660;23.316;2023-04-07T03:25:40;94177.78;;;12.69;34.45
6090;BME280;3073;42.660;23.316;2023-04-07T03:28:12;94170.09;;;12.89;34.31
6090;BME280;3073;42.660;23.316;2023-04-07T03:30:39;94174.97;;;12.40;34.60
6090;BME280;3073;42.660;23.316;2023-04-07T03:33:07;94165.72;;;12.84;34.50
6090;BME280;3073;42.660;23.316;2023-04-07T03:35:34;94168.13;;;13.65;34.10
6090;BME280;3073;42.660;23.316;2023-04-07T03:38:01;94159.28;;;13.37;33.79
6090;BME280;3073;42.660;23.316;2023-04-07T03:40:28;94161.53;;;13.54;33.67
6090;BME280;3073;42.660;23.316;2023-04-07T03:42:56;94162.63;;;14.41;33.20
6090;BME280;3073;42.660;23.316;2023-04-07T03:45:23;94164.63;;;13.41;34.08
6090;BME280;3073;42.660;23.316;2023-04-07T03:47:50;94166.50;;;13.89;33.67
6090;BME280;3073;42.660;23.316;2023-04-07T03:50:18;94166.25;;;13.07;34.37
6090;BME280;3073;42.660;23.316;2023-04-07T03:52:45;94169.28;;;13.34;34.53
6090;BME280;3073;42.660;23.316;2023-04-07T03:55:12;94167.28;;;12.50;35.14
6090;BME280;3073;42.660;23.316;2023-04-07T03:57:40;94164.38;;;14.02;33.59
6090;BME280;3073;42.660;23.316;2023-04-07T04:00:10;94168.81;;;14.35;33.15
6090;BME280;3073;42.660;23.316;2023-04-07T04:02:42;94174.34;;;14.08;33.58
6090;BME280;3073;42.660;23.316;2023-04-07T04:05:09;94168.53;;;12.37;35.26
6090;BME280;3073;42.660;23.316;2023-04-07T04:07:36;94173.44;;;13.10;34.11
6090;BME280;3073;42.660;23.316;2023-04-07T04:10:04;94175.94;;;13.05;34.22
6090;BME280;3073;42.660;23.316;2023-04-07T04:12:31;94179.56;;;13.88;33.48
6090;BME280;3073;42.660;23.316;2023-04-07T04:15:01;94181.84;;;13.25;34.51
6090;BME280;3073;42.660;23.316;2023-04-07T04:17:31;94181.34;;;12.93;34.48
6090;BME280;3073;42.660;23.316;2023-04-07T04:20:01;94185.41;;;13.39;34.02
6090;BME280;3073;42.660;23.316;2023-04-07T04:22:28;94180.34;;;13.09;33.56
6090;BME280;3073;42.660;23.316;2023-04-07T04:24:56;94188.16;;;14.61;32.92
6090;BME280;3073;42.660;23.316;2023-04-07T04:27:23;94183.84;;;15.19;32.37
6090;BME280;3073;42.660;23.316;2023-04-07T04:29:50;94198.66;;;15.56;31.88
6090;BME280;3073;42.660;23.316;2023-04-07T04:32:18;94195.16;;;16.13;30.88
6090;BME280;3073;42.660;23.316;2023-04-07T04:34:49;94201.22;;;16.41;30.77
6090;BME280;3073;42.660;23.316;2023-04-07T04:37:19;94190.69;;;15.00;31.93
6090;BME280;3073;42.660;23.316;2023-04-07T04:39:46;94196.31;;;14.24;32.77
6090;BME280;3073;42.660;23.316;2023-04-07T04:42:13;94194.53;;;14.25;32.53
6090;BME280;3073;42.660;23.316;2023-04-07T04:44:40;94195.94;;;12.98;33.73
6090;BME280;3073;42.660;23.316;2023-04-07T04:47:07;94203.91;;;14.01;32.74
6090;BME280;3073;42.660;23.316;2023-04-07T04:49:35;94204.16;;;14.48;32.13
6090;BME280;3073;42.660;23.316;2023-04-07T04:52:03;94208.16;;;16.03;31.04
6090;BME280;3073;42.660;23.316;2023-04-07T04:54:30;94212.78;;;16.43;30.86
6090;BME280;3073;42.660;23.316;2023-04-07T04:56:57;94203.63;;;16.88;30.43
6090;BME280;3073;42.660;23.316;2023-04-07T04:59:24;94216.03;;;16.49;31.73
6090;BME280;3073;42.660;23.316;2023-04-07T05:01:51;94215.84;;;15.84;34.07
6090;BME280;3073;42.660;23.316;2023-04-07T05:04:18;94215.56;;;16.47;34.04
6090;BME280;3073;42.660;23.316;2023-04-07T05:06:44;94219.56;;;16.16;34.17
6090;BME280;3073;42.660;23.316;2023-04-07T05:09:13;94225.25;;;15.70;35.15
6090;BME280;3073;42.660;23.316;2023-04-07T05:11:40;94232.25;;;15.88;35.34
6090;BME280;3073;42.660;23.316;2023-04-07T05:14:07;94223.94;;;16.58;34.79
6090;BME280;3073;42.660;23.316;2023-04-07T05:16:34;94227.97;;;16.64;34.36
6090;BME280;3073;42.660;23.316;2023-04-07T05:19:01;94225.88;;;16.66;34.12
6090;BME280;3073;42.660;23.316;2023-04-07T05:21:29;94236.59;;;17.24;33.70
6090;BME280;3073;42.660;23.316;2023-04-07T05:23:56;94229.91;;;16.90;33.36
6090;BME280;3073;42.660;23.316;2023-04-07T05:26:24;94241.16;;;17.27;33.47
6090;BME280;3073;42.660;23.316;2023-04-07T05:28:51;94233.81;;;17.02;33.98
6090;BME280;3073;42.660;23.316;2023-04-07T05:31:18;94244.59;;;17.95;32.89
6090;BME280;3073;42.660;23.316;2023-04-07T05:33:45;94235.16;;;17.91;32.97
6090;BME280;3073;42.660;23.316;2023-04-07T05:36:12;94238.78;;;17.90;32.84
6090;BME280;3073;42.660;23.316;2023-04-07T05:38:39;94238.75;;;16.66;33.67
6090;BME280;3073;42.660;23.316;2023-04-07T05:41:05;94238.63;;;17.08;33.87
6090;BME280;3073;42.660;23.316;2023-04-07T05:43:34;94240.13;;;16.58;34.15
6090;BME280;3073;42.660;23.316;2023-04-07T05:46:00;94239.09;;;15.45;34.65
6090;BME280;3073;42.660;23.316;2023-04-07T05:48:27;94237.97;;;16.84;33.61
6090;BME280;3073;42.660;23.316;2023-04-07T05:50:54;94241.06;;;17.91;32.35
6090;BME280;3073;42.660;23.316;2023-04-07T05:53:21;94237.72;;;17.64;32.77
6090;BME280;3073;42.660;23.316;2023-04-07T05:55:48;94243.75;;;16.76;33.17
6090;BME280;3073;42.660;23.316;2023-04-07T05:58:15;94242.13;;;18.18;32.24
6090;BME280;3073;42.660;23.316;2023-04-07T06:00:43;94238.53;;;18.55;31.76
6090;BME280;3073;42.660;23.316;2023-04-07T06:03:10;94244.50;;;19.44;30.64
6090;BME280;3073;42.660;23.316;2023-04-07T06:05:37;94239.44;;;19.17;30.73
6090;BME280;3073;42.660;23.316;2023-04-07T06:08:07;94236.88;;;19.25;30.74
6090;BME280;3073;42.660;23.316;2023-04-07T06:10:34;94228.13;;;18.68;31.15
6090;BME280;3073;42.660;23.316;2023-04-07T06:13:01;94244.03;;;18.97;31.29
6090;BME280;3073;42.660;23.316;2023-04-07T06:15:28;94238.66;;;19.69;30.30
6090;BME280;3073;42.660;23.316;2023-04-07T06:17:56;94240.47;;;19.60;30.54
6090;BME280;3073;42.660;23.316;2023-04-07T06:20:23;94246.16;;;19.79;30.54
6090;BME280;3073;42.660;23.316;2023-04-07T06:22:52;94251.28;;;20.84;29.16
6090;BME280;3073;42.660;23.316;2023-04-07T06:25:19;94248.69;;;21.18;29.16
6090;BME280;3073;42.660;23.316;2023-04-07T06:27:46;94244.69;;;20.52;29.02
6090;BME280;3073;42.660;23.316;2023-04-07T06:30:13;94246.97;;;20.28;29.56
6090;BME280;3073;42.660;23.316;2023-04-07T06:32:40;94234.47;;;19.29;30.43
6090;BME280;3073;42.660;23.316;2023-04-07T06:35:08;94227.06;;;19.36;30.29
6090;BME280;3073;42.660;23.316;2023-04-07T06:37:36;94243.94;;;20.34;29.70
6090;BME280;3073;42.660;23.316;2023-04-07T06:40:04;94241.81;;;20.96;29.01
6090;BME280;3073;42.660;23.316;2023-04-07T06:42:31;94246.03;;;21.35;28.36
6090;BME280;3073;42.660;23.316;2023-04-07T06:44:58;94236.16;;;21.20;27.31
6090;BME280;3073;42.660;23.316;2023-04-07T06:47:25;94224.34;;;19.72;27.54
6090;BME280;3073;42.660;23.316;2023-04-07T06:49:52;94245.91;;;16.50;31.02
6090;BME280;3073;42.660;23.316;2023-04-07T06:52:20;94230.13;;;18.22;29.13
6090;BME280;3073;42.660;23.316;2023-04-07T06:54:47;94233.56;;;18.44;28.57
6090;BME280;3073;42.660;23.316;2023-04-07T06:57:14;94234.16;;;18.99;28.47
6090;BME280;3073;42.660;23.316;2023-04-07T06:59:41;94239.06;;;18.65;28.37
6090;BME280;3073;42.660;23.316;2023-04-07T07:02:08;94240.25;;;18.32;28.43
6090;BME280;3073;42.660;23.316;2023-04-07T07:04:35;94241.91;;;19.75;28.01
6090;BME280;3073;42.660;23.316;2023-04-07T07:07:02;94249.03;;;17.03;29.21
6090;BME280;3073;42.660;23.316;2023-04-07T07:09:30;94244.03;;;17.98;28.97
6090;BME280;3073;42.660;23.316;2023-04-07T07:11:57;94241.56;;;17.93;29.03
6090;BME280;3073;42.660;23.316;2023-04-07T07:14:26;94256.78;;;16.66;29.83
6090;BME280;3073;42.660;23.316;2023-04-07T07:16:53;94248.13;;;18.27;28.82
6090;BME280;3073;42.660;23.316;2023-04-07T07:19:20;94255.53;;;16.82;30.12
6090;BME280;3073;42.660;23.316;2023-04-07T07:21:47;94262.03;;;16.61;30.41
6090;BME280;3073;42.660;23.316;2023-04-07T07:24:14;94252.50;;;15.71;30.71
6090;BME280;3073;42.660;23.316;2023-04-07T07:26:43;94247.38;;;15.14;30.97
6090;BME280;3073;42.660;23.316;2023-04-07T07:29:10;94263.75;;;16.23;30.88
6090;BME280;3073;42.660;23.316;2023-04-07T07:31:37;94269.81;;;15.89;31.12
6090;BME280;3073;42.660;23.316;2023-04-07T07:34:04;94271.03;;;16.58;30.96
6090;BME280;3073;42.660;23.316;2023-04-07T07:36:31;94277.25;;;16.57;30.42
6090;BME280;3073;42.660;23.316;2023-04-07T07:38:57;94269.91;;;16.45;30.41
6090;BME280;3073;42.660;23.316;2023-04-07T07:41:24;94264.38;;;14.71;32.22
6090;BME280;3073;42.660;23.316;2023-04-07T07:43:53;94272.16;;;16.89;30.30
6090;BME280;3073;42.660;23.316;2023-04-07T07:46:20;94262.84;;;15.66;31.64
6090;BME280;3073;42.660;23.316;2023-04-07T07:48:48;94279.31;;;17.11;30.33
6090;BME280;3073;42.660;23.316;2023-04-07T07:51:15;94279.28;;;15.70;31.34
6090;BME280;3073;42.660;23.316;2023-04-07T07:53:42;94276.94;;;15.40;31.41
6090;BME280;3073;42.660;23.316;2023-04-07T07:56:10;94279.13;;;14.50;32.44
6090;BME280;3073;42.660;23.316;2023-04-07T07:58:37;94276.97;;;15.06;31.23
6090;BME280;3073;42.660;23.316;2023-04-07T08:01:05;94278.06;;;17.41;30.05
6090;BME280;3073;42.660;23.316;2023-04-07T08:03:32;94281.41;;;16.11;30.70
6090;BME280;3073;42.660;23.316;2023-04-07T08:05:59;94282.84;;;17.93;29.50
6090;BME280;3073;42.660;23.316;2023-04-07T08:08:26;94279.22;;;17.16;29.88
6090;BME280;3073;42.660;23.316;2023-04-07T08:10:53;94290.88;;;16.15;30.28
6090;BME280;3073;42.660;23.316;2023-04-07T08:13:19;94283.59;;;15.98;30.67
6090;BME280;3073;42.660;23.316;2023-04-07T08:15:46;94275.50;;;18.00;29.09
6090;BME280;3073;42.660;23.316;2023-04-07T08:18:15;94278.63;;;20.25;27.69
6090;BME280;3073;42.660;23.316;2023-04-07T08:20:42;94286.19;;;17.48;29.38
6090;BME280;3073;42.660;23.316;2023-04-07T08:23:09;94278.03;;;17.60;29.93
6090;BME280;3073;42.660;23.316;2023-04-07T08:25:36;94284.81;;;17.05;30.18
6090;BME280;3073;42.660;23.316;2023-04-07T08:28:04;94283.03;;;16.86;30.11
6090;BME280;3073;42.660;23.316;2023-04-07T08:30:33;94276.50;;;17.59;29.53
6090;BME280;3073;42.660;23.316;2023-04-07T08:33:00;94283.03;;;15.78;30.91
6090;BME280;3073;42.660;23.316;2023-04-07T08:35:28;94285.34;;;18.12;29.34
6090;BME280;3073;42.660;23.316;2023-04-07T08:37:55;94283.59;;;17.34;29.69
6090;BME280;3073;42.660;23.316;2023-04-07T08:40:23;94279.28;;;16.97;30.39
6090;BME280;3073;42.660;23.316;2023-04-07T08:42:50;94273.81;;;16.43;30.43
6090;BME280;3073;42.660;23.316;2023-04-07T08:45:18;94271.56;;;18.17;29.78
6090;BME280;3073;42.660;23.316;2023-04-07T08:47:48;94273.09;;;16.61;30.85
6090;BME280;3073;42.660;23.316;2023-04-07T08:50:19;94282.72;;;15.27;31.93
6090;BME280;3073;42.660;23.316;2023-04-07T08:52:50;94268.63;;;16.85;30.37
6090;BME280;3073;42.660;23.316;2023-04-07T08:55:19;94283.97;;;15.63;30.89
6090;BME280;3073;42.660;23.316;2023-04-07T08:57:46;94285.63;;;16.86;29.53
6090;BME280;3073;42.660;23.316;2023-04-07T09:00:14;94283.47;;;15.85;30.52
6090;BME280;3073;42.660;23.316;2023-04-07T09:02:42;94283.56;;;17.21;29.82
6090;BME280;3073;42.660;23.316;2023-04-07T09:05:11;94280.75;;;19.08;28.81
6090;BME280;3073;42.660;23.316;2023-04-07T09:07:39;94282.47;;;17.86;28.46
6090;BME280;3073;42.660;23.316;2023-04-07T09:10:09;94268.47;;;20.45;27.30
6090;BME280;3073;42.660;23.316;2023-04-07T09:12:40;94278.53;;;18.30;28.09
6090;BME280;3073;42.660;23.316;2023-04-07T09:15:10;94274.03;;;18.08;28.90
6090;BME280;3073;42.660;23.316;2023-04-07T09:17:40;94269.75;;;18.04;29.52
6090;BME280;3073;42.660;23.316;2023-04-07T09:20:08;94276.69;;;19.16;28.38
6090;BME280;3073;42.660;23.316;2023-04-07T09:22:37;94272.97;;;17.68;28.97
6090;BME280;3073;42.660;23.316;2023-04-07T09:25:13;94289.59;;;15.65;30.77
6090;BME280;3073;42.660;23.316;2023-04-07T09:27:53;94274.31;;;17.01;30.00
6090;BME280;3073;42.660;23.316;2023-04-07T09:30:20;94284.22;;;16.75;29.68
6090;BME280;3073;42.660;23.316;2023-04-07T09:32:47;94278.19;;;17.49;29.71
6090;BME280;3073;42.660;23.316;2023-04-07T09:35:14;94277.19;;;18.46;28.93
6090;BME280;3073;42.660;23.316;2023-04-07T09:37:41;94275.53;;;16.29;30.76
6090;BME280;3073;42.660;23.316;2023-04-07T09:40:09;94284.88;;;19.09;28.78
6090;BME280;3073;42.660;23.316;2023-04-07T09:42:45;94291.34;;;17.16;30.39
6090;BME280;3073;42.660;23.316;2023-04-07T09:45:23;94287.25;;;18.61;29.24
6090;BME280;3073;42.660;23.316;2023-04-07T09:47:50;94289.63;;;17.89;29.83
6090;BME280;3073;42.660;23.316;2023-04-07T09:50:30;94287.72;;;18.09;29.21
6090;BME280;3073;42.660;23.316;2023-04-07T09:52:56;94294.31;;;20.20;27.99
6090;BME280;3073;42.660;23.316;2023-04-07T09:55:23;94292.59;;;20.15;27.97
6090;BME280;3073;42.660;23.316;2023-04-07T09:57:52;94298.88;;;20.23;27.37
6090;BME280;3073;42.660;23.316;2023-04-07T10:00:20;94298.03;;;21.73;26.74
6090;BME280;3073;42.660;23.316;2023-04-07T10:02:47;94294.72;;;21.55;25.88
6090;BME280;3073;42.660;23.316;2023-04-07T10:05:16;94287.69;;;23.65;25.38
6090;BME280;3073;42.660;23.316;2023-04-07T10:07:45;94291.09;;;24.74;24.08
6090;BME280;3073;42.660;23.316;2023-04-07T10:10:12;94293.03;;;23.92;24.71
6090;BME280;3073;42.660;23.316;2023-04-07T10:12:42;94285.22;;;22.73;25.05
6090;BME280;3073;42.660;23.316;2023-04-07T10:15:13;94299.59;;;20.54;26.85
6090;BME280;3073;42.660;23.316;2023-04-07T10:17:46;94282.34;;;18.32;29.06
6090;BME280;3073;42.660;23.316;2023-04-07T10:20:14;94287.66;;;17.54;29.82
6090;BME280;3073;42.660;23.316;2023-04-07T10:22:49;94289.53;;;19.43;28.31
6090;BME280;3073;42.660;23.316;2023-04-07T10:25:21;94287.28;;;21.37;26.98
6090;BME280;3073;42.660;23.316;2023-04-07T10:27:52;94294.03;;;21.93;26.41
6090;BME280;3073;42.660;23.316;2023-04-07T10:30:33;94295.38;;;20.92;26.62
6090;BME280;3073;42.660;23.316;2023-04-07T10:33:03;94290.19;;;21.27;26.50
6090;BME280;3073;42.660;23.316;2023-04-07T10:36:33;94291.09;;;21.48;26.81
6090;BME280;3073;42.660;23.316;2023-04-07T10:39:20;94295.81;;;22.39;25.91
6090;BME280;3073;42.660;23.316;2023-04-07T10:41:48;94296.88;;;21.53;26.32
6090;BME280;3073;42.660;23.316;2023-04-07T10:44:44;94306.13;;;19.64;27.89
6090;BME280;3073;42.660;23.316;2023-04-07T10:47:14;94299.31;;;20.08;27.77
6090;BME280;3073;42.660;23.316;2023-04-07T10:50:16;94298.34;;;19.64;28.04
6090;BME280;3073;42.660;23.316;2023-04-07T10:52:44;94300.53;;;20.75;28.53
6090;BME280;3073;42.660;23.316;2023-04-07T10:55:32;94311.97;;;19.47;29.69
6090;BME280;3073;42.660;23.316;2023-04-07T10:58:19;94305.13;;;18.71;30.56
6090;BME280;3073;42.660;23.316;2023-04-07T11:01:18;94310.59;;;21.63;27.80
6090;BME280;3073;42.660;23.316;2023-04-07T11:03:58;94314.47;;;22.41;27.21
6090;BME280;3073;42.660;23.316;2023-04-07T11:06:25;94322.28;;;22.41;26.95
6090;BME280;3073;42.660;23.316;2023-04-07T11:08:52;94315.69;;;23.35;26.28
6090;BME280;3073;42.660;23.316;2023-04-07T11:11:38;94315.31;;;22.24;26.97
6090;BME280;3073;42.660;23.316;2023-04-07T11:14:08;94318.31;;;21.88;27.73
6090;BME280;3073;42.660;23.316;2023-04-07T11:16:44;94318.75;;;21.27;27.82
6090;BME280;3073;42.660;23.316;2023-04-07T11:19:12;94311.84;;;21.39;28.04
6090;BME280;3073;42.660;23.316;2023-04-07T11:21:39;94311.47;;;21.75;27.56
6090;BME280;3073;42.660;23.316;2023-04-07T11:24:06;94305.97;;;21.94;27.24
6090;BME280;3073;42.660;23.316;2023-04-07T11:26:37;94319.06;;;21.89;27.39
6090;BME280;3073;42.660;23.316;2023-04-07T11:29:05;94320.44;;;22.03;27.42
6090;BME280;3073;42.660;23.316;2023-04-07T11:31:35;94319.81;;;22.44;27.43
6090;BME280;3073;42.660;23.316;2023-04-07T11:34:03;94323.41;;;19.86;29.19
6090;BME280;3073;42.660;23.316;2023-04-07T11:36:39;94320.31;;;22.67;27.33
6090;BME280;3073;42.660;23.316;2023-04-07T11:39:17;94320.41;;;21.23;28.10
6090;BME280;3073;42.660;23.316;2023-04-07T11:41:49;94323.66;;;20.46;29.23
6090;BME280;3073;42.660;23.316;2023-04-07T11:44:16;94335.13;;;21.99;28.02
6090;BME280;3073;42.660;23.316;2023-04-07T11:46:52;94332.09;;;21.97;27.91
6090;BME280;3073;42.660;23.316;2023-04-07T11:49:19;94331.84;;;21.65;27.96
6090;BME280;3073;42.660;23.316;2023-04-07T11:51:56;94330.28;;;20.69;28.90
6090;BME280;3073;42.660;23.316;2023-04-07T11:54:23;94323.06;;;20.10;29.65
6090;BME280;3073;42.660;23.316;2023-04-07T11:56:50;94315.41;;;22.36;28.19
6090;BME280;3073;42.660;23.316;2023-04-07T11:59:21;94317.06;;;22.12;28.18
6090;BME280;3073;42.660;23.316;2023-04-07T12:01:49;94313.94;;;21.72;28.49
6090;BME280;3073;42.660;23.316;2023-04-07T12:04:16;94325.22;;;22.89;27.57
6090;BME280;3073;42.660;23.316;2023-04-07T12:06:44;94319.38;;;22.92;27.39
6090;BME280;3073;42.660;23.316;2023-04-07T12:09:27;94321.22;;;23.66;26.40
6090;BME280;3073;42.660;23.316;2023-04-07T12:11:58;94315.88;;;24.07;26.81
6090;BME280;3073;42.660;23.316;2023-04-07T12:14:25;94314.69;;;24.66;26.12
6090;BME280;3073;42.660;23.316;2023-04-07T12:16:53;94315.47;;;24.66;25.61
6090;BME280;3073;42.660;23.316;2023-04-07T12:19:22;94326.66;;;25.31;25.74
6090;BME280;3073;42.660;23.316;2023-04-07T12:22:07;94314.59;;;24.86;25.74
6090;BME280;3073;42.660;23.316;2023-04-07T12:24:35;94321.88;;;24.69;25.96
6090;BME280;3073;42.660;23.316;2023-04-07T12:27:02;94322.00;;;22.63;27.46
6090;BME280;3073;42.660;23.316;2023-04-07T12:29:29;94311.59;;;23.25;27.16
6090;BME280;3073;42.660;23.316;2023-04-07T12:31:58;94320.34;;;23.95;26.58
6090;BME280;3073;42.660;23.316;2023-04-07T12:34:26;94319.88;;;23.27;26.49
6090;BME280;3073;42.660;23.316;2023-04-07T12:36:53;94314.81;;;23.64;26.42
6090;BME280;3073;42.660;23.316;2023-04-07T12:39:20;94316.50;;;23.27;27.35
6090;BME280;3073;42.660;23.316;2023-04-07T12:41:49;94316.31;;;22.70;27.40
6090;BME280;3073;42.660;23.316;2023-04-07T12:44:20;94316.00;;;22.92;27.09
6090;BME280;3073;42.660;23.316;2023-04-07T12:46:50;94320.16;;;23.67;27.12
6090;BME280;3073;42.660;23.316;2023-04-07T12:49:17;94320.53;;;21.52;28.61
6090;BME280;3073;42.660;23.316;2023-04-07T12:51:46;94319.56;;;21.82;27.66
6090;BME280;3073;42.660;23.316;2023-04-07T12:54:14;94325.59;;;23.00;27.42
6090;BME280;3073;42.660;23.316;2023-04-07T12:56:40;94315.03;;;23.38;26.69
6090;BME280;3073;42.660;23.316;2023-04-07T12:59:09;94325.09;;;22.86;27.48
6090;BME280;3073;42.660;23.316;2023-04-07T13:01:36;94317.16;;;22.82;27.54
6090;BME280;3073;42.660;23.316;2023-04-07T13:04:02;94320.81;;;22.52;27.83
6090;BME280;3073;42.660;23.316;2023-04-07T13:06:29;94318.56;;;23.00;27.30
6090;BME280;3073;42.660;23.316;2023-04-07T13:08:56;94331.94;;;22.90;27.54
6090;BME280;3073;42.660;23.316;2023-04-07T13:11:24;94327.56;;;22.53;27.67
6090;BME280;3073;42.660;23.316;2023-04-07T13:13:52;94331.34;;;22.35;27.99
6090;BME280;3073;42.660;23.316;2023-04-07T13:16:20;94330.13;;;23.12;27.81
6090;BME280;3073;42.660;23.316;2023-04-07T13:18:47;94323.06;;;22.91;27.58
6090;BME280;3073;42.660;23.316;2023-04-07T13:21:14;94329.88;;;23.04;28.34